Cherrycreek, Mississippi
Current Conditions -  °F | °C
As of 2:00 PM on Monday 22 Dec 2014 (Local Time) from KTUP Reporting Station
Haze Haze  
Wind Chill: 12°   Ceiling: 300
Heat Index: 12°   Visibility: 3mi
Dew Point: 11°   Wind: 9mph
Humidity: 93%   Direction: 180°S
Pressure: 29.73"   Gusts: NA
Location:  34.4333°N, 88.8629°W
Report Text: KTUP 222000Z 18008KT 3SM BR OVC003 12/11 A2973 RMK AO2 T01170106
Loading
Personal Weather Stations






























Interactive Weather Map New forecast layout! Learn more

10-Day Weather Forecast

Advertisements
Track Severe Weather on mobile